sensor_id;sensor_type;location;lat;lon;timestamp;P1;durP1;ratioP1;P2;durP2;ratioP2
46090;SDS011;31826;53.572;10.170;2023-02-24T00:01:52;3.17;;;1.10;;
46090;SDS011;31826;53.572;10.170;2023-02-24T00:04:24;4.07;;;1.50;;
46090;SDS011;31826;53.572;10.170;2023-02-24T00:06:50;4.68;;;1.50;;
46090;SDS011;31826;53.572;10.170;2023-02-24T00:09:17;4.22;;;1.05;;
46090;SDS011;31826;53.572;10.170;2023-02-24T00:11:52;10.30;;;1.30;;
46090;SDS011;31826;53.572;10.170;2023-02-24T00:14:18;7.70;;;1.35;;
46090;SDS011;31826;53.572;10.170;2023-02-24T00:16:44;4.63;;;1.23;;
46090;SDS011;31826;53.572;10.170;2023-02-24T00:19:15;7.03;;;1.05;;
46090;SDS011;31826;53.572;10.170;2023-02-24T00:21:43;5.35;;;1.23;;
46090;SDS011;31826;53.572;10.170;2023-02-24T00:24:10;3.60;;;1.08;;
46090;SDS011;31826;53.572;10.170;2023-02-24T00:26:36;5.27;;;1.30;;
46090;SDS011;31826;53.572;10.170;2023-02-24T00:29:06;3.70;;;0.90;;
46090;SDS011;31826;53.572;10.170;2023-02-24T00:31:33;6.57;;;1.50;;
46090;SDS011;31826;53.572;10.170;2023-02-24T00:34:01;9.23;;;1.52;;
46090;SDS011;31826;53.572;10.170;2023-02-24T00:36:29;9.02;;;1.50;;
46090;SDS011;31826;53.572;10.170;2023-02-24T00:39:02;5.60;;;1.57;;
46090;SDS011;31826;53.572;10.170;2023-02-24T00:41:33;4.53;;;1.00;;
46090;SDS011;31826;53.572;10.170;2023-02-24T00:44:07;8.53;;;1.60;;
46090;SDS011;31826;53.572;10.170;2023-02-24T00:46:35;7.60;;;1.73;;
46090;SDS011;31826;53.572;10.170;2023-02-24T00:49:03;7.45;;;1.50;;
46090;SDS011;31826;53.572;10.170;2023-02-24T00:51:35;4.20;;;1.30;;
46090;SDS011;31826;53.572;10.170;2023-02-24T00:54:03;4.95;;;1.23;;
46090;SDS011;31826;53.572;10.170;2023-02-24T00:56:29;2.90;;;1.27;;
46090;SDS011;31826;53.572;10.170;2023-02-24T00:58:56;5.32;;;1.27;;
46090;SDS011;31826;53.572;10.170;2023-02-24T01:01:24;5.22;;;1.25;;
46090;SDS011;31826;53.572;10.170;2023-02-24T01:03:52;6.03;;;1.20;;
46090;SDS011;31826;53.572;10.170;2023-02-24T01:06:21;5.72;;;1.20;;
46090;SDS011;31826;53.572;10.170;2023-02-24T01:08:49;5.18;;;1.10;;
46090;SDS011;31826;53.572;10.170;2023-02-24T01:11:17;3.60;;;1.20;;
46090;SDS011;31826;53.572;10.170;2023-02-24T01:14:08;6.90;;;1.35;;
46090;SDS011;31826;53.572;10.170;2023-02-24T01:16:35;2.47;;;1.13;;
46090;SDS011;31826;53.572;10.170;2023-02-24T01:19:02;3.13;;;0.98;;
46090;SDS011;31826;53.572;10.170;2023-02-24T01:21:32;7.03;;;1.83;;
46090;SDS011;31826;53.572;10.170;2023-02-24T01:23:58;11.55;;;2.15;;
46090;SDS011;31826;53.572;10.170;2023-02-24T01:26:24;4.25;;;1.10;;
46090;SDS011;31826;53.572;10.170;2023-02-24T01:28:51;9.52;;;1.60;;
46090;SDS011;31826;53.572;10.170;2023-02-24T01:31:20;4.88;;;1.10;;
46090;SDS011;31826;53.572;10.170;2023-02-24T01:33:47;7.35;;;1.50;;
46090;SDS011;31826;53.572;10.170;2023-02-24T01:36:17;5.65;;;1.70;;
46090;SDS011;31826;53.572;10.170;2023-02-24T01:38:45;5.77;;;1.20;;
46090;SDS011;31826;53.572;10.170;2023-02-24T01:41:14;3.08;;;1.17;;
46090;SDS011;31826;53.572;10.170;2023-02-24T01:43:58;7.05;;;1.50;;
46090;SDS011;31826;53.572;10.170;2023-02-24T01:46:36;5.28;;;1.25;;
46090;SDS011;31826;53.572;10.170;2023-02-24T01:49:20;4.32;;;1.00;;
46090;SDS011;31826;53.572;10.170;2023-02-24T01:51:47;7.75;;;1.40;;
46090;SDS011;31826;53.572;10.170;2023-02-24T01:54:21;6.13;;;1.50;;
46090;SDS011;31826;53.572;10.170;2023-02-24T01:56:51;7.60;;;1.60;;
46090;SDS011;31826;53.572;10.170;2023-02-24T01:59:19;7.50;;;1.42;;
46090;SDS011;31826;53.572;10.170;2023-02-24T02:01:47;6.88;;;1.65;;
46090;SDS011;31826;53.572;10.170;2023-02-24T02:04:19;8.40;;;1.48;;
46090;SDS011;31826;53.572;10.170;2023-02-24T02:06:55;6.18;;;1.02;;
46090;SDS011;31826;53.572;10.170;2023-02-24T02:09:22;5.82;;;1.30;;
46090;SDS011;31826;53.572;10.170;2023-02-24T02:11:49;6.43;;;1.38;;
46090;SDS011;31826;53.572;10.170;2023-02-24T02:14:15;9.67;;;1.40;;
46090;SDS011;31826;53.572;10.170;2023-02-24T02:36:42;5.28;;;1.33;;
46090;SDS011;31826;53.572;10.170;2023-02-24T02:41:56;8.45;;;1.38;;
46090;SDS011;31826;53.572;10.170;2023-02-24T02:50:08;5.65;;;1.33;;
46090;SDS011;31826;53.572;10.170;2023-02-24T02:52:46;7.53;;;1.38;;
46090;SDS011;31826;53.572;10.170;2023-02-24T02:55:37;7.40;;;1.60;;
46090;SDS011;31826;53.572;10.170;2023-02-24T02:58:13;5.90;;;1.30;;
46090;SDS011;31826;53.572;10.170;2023-02-24T03:00:48;7.50;;;1.60;;
46090;SDS011;31826;53.572;10.170;2023-02-24T03:03:31;5.60;;;1.60;;
46090;SDS011;31826;53.572;10.170;2023-02-24T03:06:23;6.00;;;1.63;;
46090;SDS011;31826;53.572;10.170;2023-02-24T03:08:53;6.93;;;1.23;;
46090;SDS011;31826;53.572;10.170;2023-02-24T03:11:38;5.35;;;1.60;;
46090;SDS011;31826;53.572;10.170;2023-02-24T03:14:05;6.17;;;1.37;;
46090;SDS011;31826;53.572;10.170;2023-02-24T03:16:36;8.43;;;1.55;;
46090;SDS011;31826;53.572;10.170;2023-02-24T03:19:06;3.55;;;1.52;;
46090;SDS011;31826;53.572;10.170;2023-02-24T03:21:43;8.40;;;1.27;;
46090;SDS011;31826;53.572;10.170;2023-02-24T03:24:12;6.82;;;1.40;;
46090;SDS011;31826;53.572;10.170;2023-02-24T03:26:41;4.78;;;1.30;;
46090;SDS011;31826;53.572;10.170;2023-02-24T03:29:17;8.20;;;1.77;;
46090;SDS011;31826;53.572;10.170;2023-02-24T03:31:51;4.47;;;1.20;;
46090;SDS011;31826;53.572;10.170;2023-02-24T03:37:07;11.32;;;3.10;;
46090;SDS011;31826;53.572;10.170;2023-02-24T03:39:33;6.68;;;1.40;;
46090;SDS011;31826;53.572;10.170;2023-02-24T03:42:04;8.20;;;1.80;;
46090;SDS011;31826;53.572;10.170;2023-02-24T03:44:45;4.95;;;2.03;;
46090;SDS011;31826;53.572;10.170;2023-02-24T03:47:11;3.60;;;1.10;;
46090;SDS011;31826;53.572;10.170;2023-02-24T03:49:39;5.57;;;1.38;;
46090;SDS011;31826;53.572;10.170;2023-02-24T03:55:19;6.22;;;1.40;;
46090;SDS011;31826;53.572;10.170;2023-02-24T04:03:25;4.45;;;1.10;;
46090;SDS011;31826;53.572;10.170;2023-02-24T04:08:32;8.88;;;1.40;;
46090;SDS011;31826;53.572;10.170;2023-02-24T04:11:11;6.57;;;1.48;;
46090;SDS011;31826;53.572;10.170;2023-02-24T04:13:48;6.45;;;1.30;;
46090;SDS011;31826;53.572;10.170;2023-02-24T04:16:20;5.27;;;1.90;;
46090;SDS011;31826;53.572;10.170;2023-02-24T04:18:58;4.22;;;1.15;;
46090;SDS011;31826;53.572;10.170;2023-02-24T04:21:27;5.55;;;1.48;;
46090;SDS011;31826;53.572;10.170;2023-02-24T04:23:56;7.43;;;2.38;;
46090;SDS011;31826;53.572;10.170;2023-02-24T04:26:30;2.97;;;1.00;;
46090;SDS011;31826;53.572;10.170;2023-02-24T04:28:56;4.25;;;1.23;;
46090;SDS011;31826;53.572;10.170;2023-02-24T04:31:23;5.20;;;1.30;;
46090;SDS011;31826;53.572;10.170;2023-02-24T04:33:50;8.68;;;1.50;;
46090;SDS011;31826;53.572;10.170;2023-02-24T04:36:18;3.72;;;1.17;;
46090;SDS011;31826;53.572;10.170;2023-02-24T04:38:45;4.70;;;1.63;;
46090;SDS011;31826;53.572;10.170;2023-02-24T04:41:12;8.63;;;1.67;;
46090;SDS011;31826;53.572;10.170;2023-02-24T04:43:45;3.53;;;1.13;;
46090;SDS011;31826;53.572;10.170;2023-02-24T04:46:12;9.65;;;1.70;;
46090;SDS011;31826;53.572;10.170;2023-02-24T04:48:38;4.35;;;1.50;;
46090;SDS011;31826;53.572;10.170;2023-02-24T04:51:04;8.20;;;1.90;;
46090;SDS011;31826;53.572;10.170;2023-02-24T04:53:30;4.38;;;1.25;;
46090;SDS011;31826;53.572;10.170;2023-02-24T04:55:56;5.57;;;1.55;;
46090;SDS011;31826;53.572;10.170;2023-02-24T04:58:25;3.08;;;1.20;;
46090;SDS011;31826;53.572;10.170;2023-02-24T05:00:54;5.05;;;1.50;;
46090;SDS011;31826;53.572;10.170;2023-02-24T05:03:21;7.40;;;1.50;;
46090;SDS011;31826;53.572;10.170;2023-02-24T05:05:56;6.10;;;1.50;;
46090;SDS011;31826;53.572;10.170;2023-02-24T05:08:26;6.53;;;1.45;;
46090;SDS011;31826;53.572;10.170;2023-02-24T05:10:53;2.03;;;0.98;;
46090;SDS011;31826;53.572;10.170;2023-02-24T05:13:25;2.92;;;1.00;;
46090;SDS011;31826;53.572;10.170;2023-02-24T05:15:56;3.33;;;1.10;;
46090;SDS011;31826;53.572;10.170;2023-02-24T05:18:24;7.68;;;1.48;;
46090;SDS011;31826;53.572;10.170;2023-02-24T05:20:51;6.20;;;1.55;;
46090;SDS011;31826;53.572;10.170;2023-02-24T05:23:38;4.38;;;1.30;;
46090;SDS011;31826;53.572;10.170;2023-02-24T05:26:09;7.75;;;1.30;;
46090;SDS011;31826;53.572;10.170;2023-02-24T05:28:40;4.82;;;1.10;;
46090;SDS011;31826;53.572;10.170;2023-02-24T05:31:13;3.13;;;1.10;;
46090;SDS011;31826;53.572;10.170;2023-02-24T05:33:44;5.25;;;1.55;;
46090;SDS011;31826;53.572;10.170;2023-02-24T05:36:16;6.50;;;1.38;;
46090;SDS011;31826;53.572;10.170;2023-02-24T05:38:46;6.40;;;1.50;;
46090;SDS011;31826;53.572;10.170;2023-02-24T05:41:17;6.95;;;1.40;;
46090;SDS011;31826;53.572;10.170;2023-02-24T05:43:47;5.82;;;1.20;;
46090;SDS011;31826;53.572;10.170;2023-02-24T05:46:22;6.80;;;1.20;;
46090;SDS011;31826;53.572;10.170;2023-02-24T05:48:56;8.60;;;1.30;;
46090;SDS011;31826;53.572;10.170;2023-02-24T05:51:26;8.95;;;1.88;;
46090;SDS011;31826;53.572;10.170;2023-02-24T05:54:08;5.57;;;1.30;;
46090;SDS011;31826;53.572;10.170;2023-02-24T05:56:36;4.72;;;1.50;;
46090;SDS011;31826;53.572;10.170;2023-02-24T05:59:04;7.40;;;1.48;;
46090;SDS011;31826;53.572;10.170;2023-02-24T06:01:33;6.23;;;1.50;;
46090;SDS011;31826;53.572;10.170;2023-02-24T06:04:02;5.45;;;1.27;;
46090;SDS011;31826;53.572;10.170;2023-02-24T06:06:36;5.53;;;2.00;;
46090;SDS011;31826;53.572;10.170;2023-02-24T06:09:07;3.90;;;1.10;;
46090;SDS011;31826;53.572;10.170;2023-02-24T06:11:39;3.08;;;1.13;;
46090;SDS011;31826;53.572;10.170;2023-02-24T06:14:06;2.97;;;1.23;;
46090;SDS011;31826;53.572;10.170;2023-02-24T06:16:37;3.58;;;1.17;;
46090;SDS011;31826;53.572;10.170;2023-02-24T06:19:05;5.60;;;1.48;;
46090;SDS011;31826;53.572;10.170;2023-02-24T06:21:33;6.37;;;1.53;;
46090;SDS011;31826;53.572;10.170;2023-02-24T06:23:59;4.85;;;1.30;;
46090;SDS011;31826;53.572;10.170;2023-02-24T06:26:25;5.50;;;1.50;;
46090;SDS011;31826;53.572;10.170;2023-02-24T06:28:57;7.57;;;1.67;;
46090;SDS011;31826;53.572;10.170;2023-02-24T06:31:24;7.07;;;1.63;;
46090;SDS011;31826;53.572;10.170;2023-02-24T06:33:51;10.00;;;2.15;;
46090;SDS011;31826;53.572;10.170;2023-02-24T06:36:17;5.07;;;1.40;;
46090;SDS011;31826;53.572;10.170;2023-02-24T06:38:44;6.68;;;1.38;;
46090;SDS011;31826;53.572;10.170;2023-02-24T06:41:10;5.30;;;1.58;;
46090;SDS011;31826;53.572;10.170;2023-02-24T06:43:37;7.47;;;2.30;;
46090;SDS011;31826;53.572;10.170;2023-02-24T06:46:07;6.70;;;1.92;;
46090;SDS011;31826;53.572;10.170;2023-02-24T06:48:35;6.13;;;2.00;;
46090;SDS011;31826;53.572;10.170;2023-02-24T06:51:09;5.30;;;2.00;;
46090;SDS011;31826;53.572;10.170;2023-02-24T06:53:37;11.93;;;2.15;;
46090;SDS011;31826;53.572;10.170;2023-02-24T06:56:13;4.65;;;1.60;;
46090;SDS011;31826;53.572;10.170;2023-02-24T06:58:52;4.50;;;1.75;;
46090;SDS011;31826;53.572;10.170;2023-02-24T07:01:23;6.65;;;1.98;;
46090;SDS011;31826;53.572;10.170;2023-02-24T07:03:53;4.30;;;1.48;;
46090;SDS011;31826;53.572;10.170;2023-02-24T07:06:32;5.97;;;1.90;;
46090;SDS011;31826;53.572;10.170;2023-02-24T07:09:00;5.45;;;1.55;;
46090;SDS011;31826;53.572;10.170;2023-02-24T07:11:31;4.72;;;1.60;;
46090;SDS011;31826;53.572;10.170;2023-02-24T07:13:58;5.28;;;1.50;;
46090;SDS011;31826;53.572;10.170;2023-02-24T07:16:24;5.53;;;1.65;;
46090;SDS011;31826;53.572;10.170;2023-02-24T07:18:56;7.90;;;1.88;;
46090;SDS011;31826;53.572;10.170;2023-02-24T07:21:24;7.43;;;1.65;;
46090;SDS011;31826;53.572;10.170;2023-02-24T07:23:54;5.75;;;1.77;;
46090;SDS011;31826;53.572;10.170;2023-02-24T07:26:21;6.65;;;2.00;;
46090;SDS011;31826;53.572;10.170;2023-02-24T07:28:49;7.13;;;2.03;;
46090;SDS011;31826;53.572;10.170;2023-02-24T07:31:19;6.50;;;2.10;;
46090;SDS011;31826;53.572;10.170;2023-02-24T07:33:47;9.50;;;2.83;;
46090;SDS011;31826;53.572;10.170;2023-02-24T07:36:14;6.25;;;2.63;;
46090;SDS011;31826;53.572;10.170;2023-02-24T07:38:43;9.70;;;2.67;;
46090;SDS011;31826;53.572;10.170;2023-02-24T07:41:10;7.75;;;2.97;;
46090;SDS011;31826;53.572;10.170;2023-02-24T07:43:39;7.43;;;2.75;;
46090;SDS011;31826;53.572;10.170;2023-02-24T07:46:06;9.77;;;3.63;;
46090;SDS011;31826;53.572;10.170;2023-02-24T07:48:35;6.63;;;3.40;;
46090;SDS011;31826;53.572;10.170;2023-02-24T07:51:05;10.70;;;3.30;;
46090;SDS011;31826;53.572;10.170;2023-02-24T07:53:32;9.15;;;3.45;;
46090;SDS011;31826;53.572;10.170;2023-02-24T07:55:59;9.75;;;3.67;;
46090;SDS011;31826;53.572;10.170;2023-02-24T07:58:30;8.55;;;3.75;;
46090;SDS011;31826;53.572;10.170;2023-02-24T08:00:59;8.95;;;3.60;;
46090;SDS011;31826;53.572;10.170;2023-02-24T08:03:32;9.85;;;3.60;;
46090;SDS011;31826;53.572;10.170;2023-02-24T08:06:06;8.07;;;3.05;;
46090;SDS011;31826;53.572;10.170;2023-02-24T08:08:43;6.30;;;2.75;;
46090;SDS011;31826;53.572;10.170;2023-02-24T08:11:35;8.00;;;3.13;;
46090;SDS011;31826;53.572;10.170;2023-02-24T08:14:04;10.77;;;3.53;;
46090;SDS011;31826;53.572;10.170;2023-02-24T08:19:08;6.45;;;3.20;;
46090;SDS011;31826;53.572;10.170;2023-02-24T08:21:39;7.30;;;3.00;;
46090;SDS011;31826;53.572;10.170;2023-02-24T08:24:06;9.98;;;3.58;;
46090;SDS011;31826;53.572;10.170;2023-02-24T08:26:42;8.48;;;3.50;;
46090;SDS011;31826;53.572;10.170;2023-02-24T08:29:17;9.25;;;3.60;;
46090;SDS011;31826;53.572;10.170;2023-02-24T08:31:44;7.90;;;3.30;;
46090;SDS011;31826;53.572;10.170;2023-02-24T08:34:11;8.40;;;4.00;;
46090;SDS011;31826;53.572;10.170;2023-02-24T08:36:40;13.93;;;4.80;;
46090;SDS011;31826;53.572;10.170;2023-02-24T08:39:12;10.18;;;3.88;;
46090;SDS011;31826;53.572;10.170;2023-02-24T08:41:38;9.90;;;4.38;;
46090;SDS011;31826;53.572;10.170;2023-02-24T08:44:15;10.80;;;5.03;;
46090;SDS011;31826;53.572;10.170;2023-02-24T08:46:46;12.05;;;5.60;;
46090;SDS011;31826;53.572;10.170;2023-02-24T08:49:16;9.63;;;4.32;;
46090;SDS011;31826;53.572;10.170;2023-02-24T08:51:43;12.25;;;5.03;;
46090;SDS011;31826;53.572;10.170;2023-02-24T08:54:12;10.88;;;5.15;;
46090;SDS011;31826;53.572;10.170;2023-02-24T08:56:43;10.80;;;5.10;;
46090;SDS011;31826;53.572;10.170;2023-02-24T08:59:14;16.35;;;5.30;;
46090;SDS011;31826;53.572;10.170;2023-02-24T09:02:01;11.55;;;5.40;;
46090;SDS011;31826;53.572;10.170;2023-02-24T09:09:53;12.95;;;5.20;;
46090;SDS011;31826;53.572;10.170;2023-02-24T09:12:23;9.90;;;5.00;;
46090;SDS011;31826;53.572;10.170;2023-02-24T09:14:58;11.00;;;4.00;;
46090;SDS011;31826;53.572;10.170;2023-02-24T09:17:27;10.17;;;4.83;;
46090;SDS011;31826;53.572;10.170;2023-02-24T09:20:11;8.98;;;4.78;;
46090;SDS011;31826;53.572;10.170;2023-02-24T09:22:51;7.90;;;4.03;;
46090;SDS011;31826;53.572;10.170;2023-02-24T09:25:22;7.45;;;3.35;;
46090;SDS011;31826;53.572;10.170;2023-02-24T09:28:09;7.90;;;3.17;;
46090;SDS011;31826;53.572;10.170;2023-02-24T09:30:46;6.10;;;3.00;;
46090;SDS011;31826;53.572;10.170;2023-02-24T09:33:32;6.10;;;2.90;;
46090;SDS011;31826;53.572;10.170;2023-02-24T09:36:09;5.68;;;2.85;;
46090;SDS011;31826;53.572;10.170;2023-02-24T09:38:50;5.82;;;2.60;;
46090;SDS011;31826;53.572;10.170;2023-02-24T09:41:39;5.70;;;2.63;;
46090;SDS011;31826;53.572;10.170;2023-02-24T09:47:18;7.43;;;2.72;;
46090;SDS011;31826;53.572;10.170;2023-02-24T09:50:25;5.20;;;2.58;;
46090;SDS011;31826;53.572;10.170;2023-02-24T09:53:13;6.78;;;2.80;;
46090;SDS011;31826;53.572;10.170;2023-02-24T10:12:43;8.30;;;3.53;;
46090;SDS011;31826;53.572;10.170;2023-02-24T10:15:16;10.23;;;3.50;;
46090;SDS011;31826;53.572;10.170;2023-02-24T10:17:57;6.70;;;3.00;;
46090;SDS011;31826;53.572;10.170;2023-02-24T10:20:37;7.13;;;3.33;;
46090;SDS011;31826;53.572;10.170;2023-02-24T10:23:21;6.70;;;3.47;;
46090;SDS011;31826;53.572;10.170;2023-02-24T10:26:11;7.70;;;3.60;;
46090;SDS011;31826;53.572;10.170;2023-02-24T10:31:49;8.32;;;3.75;;
46090;SDS011;31826;53.572;10.170;2023-02-24T10:34:25;8.50;;;3.70;;
46090;SDS011;31826;53.572;10.170;2023-02-24T10:37:09;9.73;;;4.13;;
46090;SDS011;31826;53.572;10.170;2023-02-24T10:39:37;8.45;;;3.90;;
46090;SDS011;31826;53.572;10.170;2023-02-24T10:42:07;8.32;;;3.78;;
46090;SDS011;31826;53.572;10.170;2023-02-24T10:44:43;5.80;;;3.23;;
46090;SDS011;31826;53.572;10.170;2023-02-24T10:49:55;8.68;;;4.00;;
46090;SDS011;31826;53.572;10.170;2023-02-24T10:56:00;8.63;;;4.03;;
46090;SDS011;31826;53.572;10.170;2023-02-24T11:04:13;9.57;;;4.55;;
46090;SDS011;31826;53.572;10.170;2023-02-24T11:07:06;11.63;;;4.68;;
46090;SDS011;31826;53.572;10.170;2023-02-24T11:09:48;10.30;;;4.00;;
46090;SDS011;31826;53.572;10.170;2023-02-24T11:12:36;11.13;;;4.40;;
46090;SDS011;31826;53.572;10.170;2023-02-24T11:15:31;9.98;;;4.68;;
46090;SDS011;31826;53.572;10.170;2023-02-24T11:18:27;9.30;;;4.78;;
46090;SDS011;31826;53.572;10.170;2023-02-24T11:20:56;9.67;;;4.60;;
46090;SDS011;31826;53.572;10.170;2023-02-24T11:23:28;11.80;;;5.27;;
46090;SDS011;31826;53.572;10.170;2023-02-24T11:25:59;10.82;;;5.05;;
46090;SDS011;31826;53.572;10.170;2023-02-24T11:34:08;11.07;;;5.32;;
46090;SDS011;31826;53.572;10.170;2023-02-24T11:41:59;10.67;;;5.53;;
46090;SDS011;31826;53.572;10.170;2023-02-24T11:47:33;11.88;;;4.97;;
46090;SDS011;31826;53.572;10.170;2023-02-24T11:52:50;12.65;;;5.25;;
46090;SDS011;31826;53.572;10.170;2023-02-24T11:55:30;9.65;;;4.75;;
46090;SDS011;31826;53.572;10.170;2023-02-24T11:58:17;10.63;;;4.70;;
46090;SDS011;31826;53.572;10.170;2023-02-24T12:00:56;11.00;;;4.55;;
46090;SDS011;31826;53.572;10.170;2023-02-24T12:03:37;7.90;;;4.05;;
46090;SDS011;31826;53.572;10.170;2023-02-24T12:06:15;10.57;;;4.88;;
46090;SDS011;31826;53.572;10.170;2023-02-24T12:09:12;9.45;;;4.60;;
46090;SDS011;31826;53.572;10.170;2023-02-24T12:14:29;9.20;;;4.80;;
46090;SDS011;31826;53.572;10.170;2023-02-24T12:17:16;11.63;;;4.77;;
46090;SDS011;31826;53.572;10.170;2023-02-24T12:22:33;12.57;;;5.40;;
46090;SDS011;31826;53.572;10.170;2023-02-24T12:25:11;13.25;;;5.18;;
46090;SDS011;31826;53.572;10.170;2023-02-24T12:27:41;10.75;;;4.90;;
46090;SDS011;31826;53.572;10.170;2023-02-24T12:41:25;11.37;;;5.10;;
46090;SDS011;31826;53.572;10.170;2023-02-24T12:44:14;12.50;;;5.25;;
46090;SDS011;31826;53.572;10.170;2023-02-24T12:52:26;12.32;;;6.18;;
46090;SDS011;31826;53.572;10.170;2023-02-24T12:55:30;12.80;;;6.28;;
46090;SDS011;31826;53.572;10.170;2023-02-24T12:58:02;17.33;;;7.15;;
46090;SDS011;31826;53.572;10.170;2023-02-24T13:00:39;13.20;;;6.32;;
46090;SDS011;31826;53.572;10.170;2023-02-24T13:08:51;12.88;;;5.93;;
46090;SDS011;31826;53.572;10.170;2023-02-24T13:16:48;11.27;;;4.03;;
46090;SDS011;31826;53.572;10.170;2023-02-24T13:21:43;10.35;;;4.10;;
46090;SDS011;31826;53.572;10.170;2023-02-24T13:24:25;14.45;;;3.92;;
46090;SDS011;31826;53.572;10.170;2023-02-24T13:26:51;13.25;;;4.10;;
46090;SDS011;31826;53.572;10.170;2023-02-24T13:29:52;12.45;;;4.90;;
46090;SDS011;31826;53.572;10.170;2023-02-24T13:32:44;11.38;;;4.93;;
46090;SDS011;31826;53.572;10.170;2023-02-24T13:37:42;12.60;;;5.20;;
46090;SDS011;31826;53.572;10.170;2023-02-24T13:50:57;15.05;;;4.97;;
46090;SDS011;31826;53.572;10.170;2023-02-24T14:02:06;7.75;;;3.08;;
46090;SDS011;31826;53.572;10.170;2023-02-24T14:04:48;9.75;;;2.92;;
46090;SDS011;31826;53.572;10.170;2023-02-24T14:07:22;12.20;;;2.60;;
46090;SDS011;31826;53.572;10.170;2023-02-24T14:09:55;8.82;;;2.83;;
46090;SDS011;31826;53.572;10.170;2023-02-24T14:12:24;9.23;;;2.60;;
46090;SDS011;31826;53.572;10.170;2023-02-24T14:14:53;10.35;;;2.15;;
46090;SDS011;31826;53.572;10.170;2023-02-24T14:19:50;15.32;;;2.90;;
46090;SDS011;31826;53.572;10.170;2023-02-24T14:22:17;12.15;;;3.40;;
46090;SDS011;31826;53.572;10.170;2023-02-24T14:24:45;13.55;;;2.72;;
46090;SDS011;31826;53.572;10.170;2023-02-24T14:27:21;13.63;;;3.00;;
46090;SDS011;31826;53.572;10.170;2023-02-24T14:29:50;12.07;;;2.33;;
46090;SDS011;31826;53.572;10.170;2023-02-24T14:32:21;6.50;;;1.67;;
46090;SDS011;31826;53.572;10.170;2023-02-24T14:34:48;8.35;;;2.25;;
46090;SDS011;31826;53.572;10.170;2023-02-24T14:37:15;10.23;;;1.88;;
46090;SDS011;31826;53.572;10.170;2023-02-24T14:39:56;10.73;;;1.50;;
46090;SDS011;31826;53.572;10.170;2023-02-24T14:42:24;12.52;;;1.95;;
46090;SDS011;31826;53.572;10.170;2023-02-24T14:44:51;8.50;;;2.05;;
46090;SDS011;31826;53.572;10.170;2023-02-24T14:47:20;10.52;;;1.70;;
46090;SDS011;31826;53.572;10.170;2023-02-24T14:49:58;9.00;;;2.15;;
46090;SDS011;31826;53.572;10.170;2023-02-24T14:52:35;12.30;;;2.10;;
46090;SDS011;31826;53.572;10.170;2023-02-24T14:57:39;12.13;;;2.63;;
46090;SDS011;31826;53.572;10.170;2023-02-24T15:00:34;6.35;;;2.35;;
46090;SDS011;31826;53.572;10.170;2023-02-24T15:03:16;7.30;;;1.65;;
46090;SDS011;31826;53.572;10.170;2023-02-24T15:05:51;10.95;;;2.90;;
46090;SDS011;31826;53.572;10.170;2023-02-24T15:10:59;9.85;;;2.00;;
46090;SDS011;31826;53.572;10.170;2023-02-24T15:22:25;8.50;;;2.10;;
46090;SDS011;31826;53.572;10.170;2023-02-24T15:24:54;8.43;;;1.70;;
46090;SDS011;31826;53.572;10.170;2023-02-24T15:27:36;5.70;;;1.50;;
46090;SDS011;31826;53.572;10.170;2023-02-24T15:33:00;4.65;;;1.60;;
46090;SDS011;31826;53.572;10.170;2023-02-24T15:35:29;6.32;;;1.33;;
46090;SDS011;31826;53.572;10.170;2023-02-24T15:37:57;5.07;;;1.38;;
46090;SDS011;31826;53.572;10.170;2023-02-24T15:40:24;5.07;;;1.27;;
46090;SDS011;31826;53.572;10.170;2023-02-24T15:43:16;6.22;;;1.27;;
46090;SDS011;31826;53.572;10.170;2023-02-24T15:45:54;5.47;;;1.40;;
46090;SDS011;31826;53.572;10.170;2023-02-24T15:48:21;9.07;;;1.42;;
46090;SDS011;31826;53.572;10.170;2023-02-24T15:50:50;7.28;;;1.70;;
46090;SDS011;31826;53.572;10.170;2023-02-24T15:53:17;5.75;;;1.65;;
46090;SDS011;31826;53.572;10.170;2023-02-24T15:55:43;6.37;;;1.57;;
46090;SDS011;31826;53.572;10.170;2023-02-24T15:58:13;4.70;;;1.50;;
46090;SDS011;31826;53.572;10.170;2023-02-24T16:00:41;5.13;;;1.52;;
46090;SDS011;31826;53.572;10.170;2023-02-24T16:03:07;7.00;;;1.73;;
46090;SDS011;31826;53.572;10.170;2023-02-24T16:05:33;5.37;;;1.43;;
46090;SDS011;31826;53.572;10.170;2023-02-24T16:07:59;9.77;;;1.77;;
46090;SDS011;31826;53.572;10.170;2023-02-24T16:10:25;6.07;;;1.53;;
46090;SDS011;31826;53.572;10.170;2023-02-24T16:12:54;6.05;;;1.58;;
46090;SDS011;31826;53.572;10.170;2023-02-24T16:15:24;8.65;;;1.55;;
46090;SDS011;31826;53.572;10.170;2023-02-24T16:17:55;7.70;;;1.95;;
46090;SDS011;31826;53.572;10.170;2023-02-24T16:20:23;9.50;;;2.42;;
46090;SDS011;31826;53.572;10.170;2023-02-24T16:22:58;9.77;;;1.90;;
46090;SDS011;31826;53.572;10.170;2023-02-24T16:25:26;9.20;;;2.58;;
46090;SDS011;31826;53.572;10.170;2023-02-24T16:27:53;8.32;;;2.42;;
46090;SDS011;31826;53.572;10.170;2023-02-24T16:30:25;10.48;;;1.70;;
46090;SDS011;31826;53.572;10.170;2023-02-24T16:32:54;8.57;;;1.67;;
46090;SDS011;31826;53.572;10.170;2023-02-24T16:35:20;6.33;;;1.80;;
46090;SDS011;31826;53.572;10.170;2023-02-24T16:37:46;7.97;;;1.50;;
46090;SDS011;31826;53.572;10.170;2023-02-24T16:40:34;6.90;;;1.55;;
46090;SDS011;31826;53.572;10.170;2023-02-24T16:43:02;10.65;;;1.75;;
46090;SDS011;31826;53.572;10.170;2023-02-24T16:45:31;7.00;;;1.75;;
46090;SDS011;31826;53.572;10.170;2023-02-24T16:47:59;7.28;;;1.80;;
46090;SDS011;31826;53.572;10.170;2023-02-24T16:50:37;8.77;;;1.88;;
46090;SDS011;31826;53.572;10.170;2023-02-24T16:53:05;7.03;;;1.77;;
46090;SDS011;31826;53.572;10.170;2023-02-24T16:55:32;15.00;;;1.65;;
46090;SDS011;31826;53.572;10.170;2023-02-24T16:57:58;7.93;;;2.00;;
46090;SDS011;31826;53.572;10.170;2023-02-24T17:00:24;12.17;;;2.00;;
46090;SDS011;31826;53.572;10.170;2023-02-24T17:02:50;6.60;;;1.63;;
46090;SDS011;31826;53.572;10.170;2023-02-24T17:05:26;9.90;;;1.75;;
46090;SDS011;31826;53.572;10.170;2023-02-24T17:07:54;12.38;;;2.42;;
46090;SDS011;31826;53.572;10.170;2023-02-24T17:10:21;7.95;;;1.98;;
46090;SDS011;31826;53.572;10.170;2023-02-24T17:12:48;9.98;;;2.25;;
46090;SDS011;31826;53.572;10.170;2023-02-24T17:15:14;15.27;;;3.97;;
46090;SDS011;31826;53.572;10.170;2023-02-24T17:17:42;11.88;;;1.95;;
46090;SDS011;31826;53.572;10.170;2023-02-24T17:20:18;10.15;;;2.40;;
46090;SDS011;31826;53.572;10.170;2023-02-24T17:22:44;13.33;;;3.57;;
46090;SDS011;31826;53.572;10.170;2023-02-24T17:25:15;18.55;;;5.57;;
46090;SDS011;31826;53.572;10.170;2023-02-24T17:27:42;23.50;;;10.23;;
46090;SDS011;31826;53.572;10.170;2023-02-24T17:30:11;10.70;;;3.40;;
46090;SDS011;31826;53.572;10.170;2023-02-24T17:32:38;15.60;;;4.53;;
46090;SDS011;31826;53.572;10.170;2023-02-24T17:35:04;13.03;;;3.00;;
46090;SDS011;31826;53.572;10.170;2023-02-24T17:37:30;21.25;;;3.75;;
46090;SDS011;31826;53.572;10.170;2023-02-24T17:39:55;14.60;;;2.95;;
46090;SDS011;31826;53.572;10.170;2023-02-24T17:42:21;11.27;;;3.10;;
46090;SDS011;31826;53.572;10.170;2023-02-24T17:44:47;11.25;;;2.50;;
46090;SDS011;31826;53.572;10.170;2023-02-24T17:47:13;13.80;;;3.05;;
46090;SDS011;31826;53.572;10.170;2023-02-24T17:49:38;16.08;;;2.80;;
46090;SDS011;31826;53.572;10.170;2023-02-24T17:52:04;14.18;;;2.80;;
46090;SDS011;31826;53.572;10.170;2023-02-24T17:54:30;15.63;;;3.00;;
46090;SDS011;31826;53.572;10.170;2023-02-24T17:56:56;13.48;;;2.50;;
46090;SDS011;31826;53.572;10.170;2023-02-24T17:59:21;14.32;;;3.78;;